sensor_id;sensor_type;location;lat;lon;timestamp;P1;durP1;ratioP1;P2;durP2;ratioP2
46006;SDS011;31738;50.188;8.524;2023-10-09T00:01:25;10.52;;;4.00;;
46006;SDS011;31738;50.188;8.524;2023-10-09T00:03:52;12.48;;;4.32;;
46006;SDS011;31738;50.188;8.524;2023-10-09T00:06:21;13.63;;;4.82;;
46006;SDS011;31738;50.188;8.524;2023-10-09T00:09:07;11.35;;;5.03;;
46006;SDS011;31738;50.188;8.524;2023-10-09T00:11:48;11.85;;;4.93;;
46006;SDS011;31738;50.188;8.524;2023-10-09T00:14:13;17.45;;;5.00;;
46006;SDS011;31738;50.188;8.524;2023-10-09T00:16:40;14.25;;;4.75;;
46006;SDS011;31738;50.188;8.524;2023-10-09T00:19:14;10.60;;;4.60;;
46006;SDS011;31738;50.188;8.524;2023-10-09T00:21:45;10.45;;;5.80;;
46006;SDS011;31738;50.188;8.524;2023-10-09T00:24:12;11.75;;;5.35;;
46006;SDS011;31738;50.188;8.524;2023-10-09T00:26:45;10.50;;;4.50;;
46006;SDS011;31738;50.188;8.524;2023-10-09T00:29:12;10.73;;;5.60;;
46006;SDS011;31738;50.188;8.524;2023-10-09T00:32:00;14.13;;;5.32;;
46006;SDS011;31738;50.188;8.524;2023-10-09T00:34:39;11.70;;;5.53;;
46006;SDS011;31738;50.188;8.524;2023-10-09T00:37:11;9.45;;;5.10;;
46006;SDS011;31738;50.188;8.524;2023-10-09T00:39:42;10.75;;;5.00;;
46006;SDS011;31738;50.188;8.524;2023-10-09T00:42:09;11.20;;;5.10;;
46006;SDS011;31738;50.188;8.524;2023-10-09T00:44:38;10.90;;;5.60;;
46006;SDS011;31738;50.188;8.524;2023-10-09T00:47:11;15.18;;;5.72;;
46006;SDS011;31738;50.188;8.524;2023-10-09T00:52:26;12.38;;;4.88;;
46006;SDS011;31738;50.188;8.524;2023-10-09T00:55:04;11.88;;;4.93;;
46006;SDS011;31738;50.188;8.524;2023-10-09T00:57:53;10.80;;;4.85;;
46006;SDS011;31738;50.188;8.524;2023-10-09T01:00:30;12.52;;;5.25;;
46006;SDS011;31738;50.188;8.524;2023-10-09T01:03:19;9.93;;;5.20;;
46006;SDS011;31738;50.188;8.524;2023-10-09T01:05:47;9.82;;;4.82;;
46006;SDS011;31738;50.188;8.524;2023-10-09T01:08:23;12.25;;;4.95;;
46006;SDS011;31738;50.188;8.524;2023-10-09T01:11:00;13.27;;;5.82;;
46006;SDS011;31738;50.188;8.524;2023-10-09T01:13:38;11.23;;;5.32;;
46006;SDS011;31738;50.188;8.524;2023-10-09T01:16:14;15.20;;;5.43;;
46006;SDS011;31738;50.188;8.524;2023-10-09T01:18:43;9.57;;;4.93;;
46006;SDS011;31738;50.188;8.524;2023-10-09T01:21:10;10.93;;;5.03;;
46006;SDS011;31738;50.188;8.524;2023-10-09T01:23:49;11.88;;;5.43;;
46006;SDS011;31738;50.188;8.524;2023-10-09T01:29:05;13.52;;;5.57;;
46006;SDS011;31738;50.188;8.524;2023-10-09T01:31:35;9.43;;;4.90;;
46006;SDS011;31738;50.188;8.524;2023-10-09T01:34:08;11.90;;;5.28;;
46006;SDS011;31738;50.188;8.524;2023-10-09T01:36:38;10.02;;;4.80;;
46006;SDS011;31738;50.188;8.524;2023-10-09T01:39:05;13.35;;;4.93;;
46006;SDS011;31738;50.188;8.524;2023-10-09T01:41:50;11.02;;;5.30;;
46006;SDS011;31738;50.188;8.524;2023-10-09T01:44:24;12.10;;;5.97;;
46006;SDS011;31738;50.188;8.524;2023-10-09T01:47:03;12.18;;;5.65;;
46006;SDS011;31738;50.188;8.524;2023-10-09T01:49:36;10.52;;;5.63;;
46006;SDS011;31738;50.188;8.524;2023-10-09T01:52:07;17.20;;;6.47;;
46006;SDS011;31738;50.188;8.524;2023-10-09T01:54:37;16.13;;;6.13;;
46006;SDS011;31738;50.188;8.524;2023-10-09T01:57:04;13.95;;;5.55;;
46006;SDS011;31738;50.188;8.524;2023-10-09T01:59:39;12.95;;;5.88;;
46006;SDS011;31738;50.188;8.524;2023-10-09T02:02:13;14.52;;;6.20;;
46006;SDS011;31738;50.188;8.524;2023-10-09T02:05:04;12.23;;;6.53;;
46006;SDS011;31738;50.188;8.524;2023-10-09T02:07:35;23.08;;;6.80;;
46006;SDS011;31738;50.188;8.524;2023-10-09T02:10:13;16.23;;;7.25;;
46006;SDS011;31738;50.188;8.524;2023-10-09T02:13:04;18.92;;;7.60;;
46006;SDS011;31738;50.188;8.524;2023-10-09T02:15:38;18.17;;;8.30;;
46006;SDS011;31738;50.188;8.524;2023-10-09T02:18:14;15.50;;;7.90;;
46006;SDS011;31738;50.188;8.524;2023-10-09T02:23:31;20.45;;;9.38;;
46006;SDS011;31738;50.188;8.524;2023-10-09T02:26:16;15.90;;;8.82;;
46006;SDS011;31738;50.188;8.524;2023-10-09T02:29:05;18.73;;;8.75;;
46006;SDS011;31738;50.188;8.524;2023-10-09T02:31:43;21.98;;;8.43;;
46006;SDS011;31738;50.188;8.524;2023-10-09T02:34:12;16.23;;;8.15;;
46006;SDS011;31738;50.188;8.524;2023-10-09T02:36:38;17.42;;;7.60;;
46006;SDS011;31738;50.188;8.524;2023-10-09T02:39:23;21.25;;;7.70;;
46006;SDS011;31738;50.188;8.524;2023-10-09T02:41:54;17.98;;;8.27;;
46006;SDS011;31738;50.188;8.524;2023-10-09T02:44:31;19.90;;;7.88;;
46006;SDS011;31738;50.188;8.524;2023-10-09T02:47:05;18.90;;;8.02;;
46006;SDS011;31738;50.188;8.524;2023-10-09T02:49:37;20.00;;;8.65;;
46006;SDS011;31738;50.188;8.524;2023-10-09T02:52:05;17.70;;;8.15;;
46006;SDS011;31738;50.188;8.524;2023-10-09T02:54:32;23.73;;;8.23;;
46006;SDS011;31738;50.188;8.524;2023-10-09T02:57:01;20.42;;;7.97;;
46006;SDS011;31738;50.188;8.524;2023-10-09T02:59:33;16.92;;;7.72;;
46006;SDS011;31738;50.188;8.524;2023-10-09T03:01:59;17.20;;;7.93;;
46006;SDS011;31738;50.188;8.524;2023-10-09T03:04:25;19.60;;;8.00;;
46006;SDS011;31738;50.188;8.524;2023-10-09T03:07:01;17.20;;;8.05;;
46006;SDS011;31738;50.188;8.524;2023-10-09T03:09:28;25.67;;;8.77;;
46006;SDS011;31738;50.188;8.524;2023-10-09T03:11:58;26.88;;;10.02;;
46006;SDS011;31738;50.188;8.524;2023-10-09T03:14:30;23.92;;;8.35;;
46006;SDS011;31738;50.188;8.524;2023-10-09T03:16:57;20.25;;;9.10;;
46006;SDS011;31738;50.188;8.524;2023-10-09T03:19:24;23.52;;;9.80;;
46006;SDS011;31738;50.188;8.524;2023-10-09T03:21:51;22.00;;;8.80;;
46006;SDS011;31738;50.188;8.524;2023-10-09T03:24:17;25.50;;;9.65;;
46006;SDS011;31738;50.188;8.524;2023-10-09T03:26:43;22.25;;;9.18;;
46006;SDS011;31738;50.188;8.524;2023-10-09T03:29:11;26.20;;;9.18;;
46006;SDS011;31738;50.188;8.524;2023-10-09T03:31:37;26.92;;;10.02;;
46006;SDS011;31738;50.188;8.524;2023-10-09T03:34:03;23.55;;;9.75;;
46006;SDS011;31738;50.188;8.524;2023-10-09T03:36:29;19.02;;;9.00;;
46006;SDS011;31738;50.188;8.524;2023-10-09T03:38:59;24.52;;;9.05;;
46006;SDS011;31738;50.188;8.524;2023-10-09T03:41:25;21.27;;;8.55;;
46006;SDS011;31738;50.188;8.524;2023-10-09T03:43:52;18.65;;;8.63;;
46006;SDS011;31738;50.188;8.524;2023-10-09T03:46:19;15.95;;;7.57;;
46006;SDS011;31738;50.188;8.524;2023-10-09T03:48:58;19.90;;;6.72;;
46006;SDS011;31738;50.188;8.524;2023-10-09T03:51:26;15.00;;;7.03;;
46006;SDS011;31738;50.188;8.524;2023-10-09T03:53:52;15.80;;;6.85;;
46006;SDS011;31738;50.188;8.524;2023-10-09T03:56:18;17.63;;;7.35;;
46006;SDS011;31738;50.188;8.524;2023-10-09T03:58:48;18.70;;;7.55;;
46006;SDS011;31738;50.188;8.524;2023-10-09T04:01:15;19.98;;;7.28;;
46006;SDS011;31738;50.188;8.524;2023-10-09T04:03:59;17.08;;;7.90;;
46006;SDS011;31738;50.188;8.524;2023-10-09T04:06:26;17.90;;;7.80;;
46006;SDS011;31738;50.188;8.524;2023-10-09T04:08:54;22.67;;;9.38;;
46006;SDS011;31738;50.188;8.524;2023-10-09T04:11:20;19.63;;;9.32;;
46006;SDS011;31738;50.188;8.524;2023-10-09T04:13:49;22.98;;;9.25;;
46006;SDS011;31738;50.188;8.524;2023-10-09T04:16:21;20.95;;;9.05;;
46006;SDS011;31738;50.188;8.524;2023-10-09T04:18:59;20.33;;;8.73;;
46006;SDS011;31738;50.188;8.524;2023-10-09T04:21:31;19.05;;;8.15;;
46006;SDS011;31738;50.188;8.524;2023-10-09T04:24:01;20.33;;;8.88;;
46006;SDS011;31738;50.188;8.524;2023-10-09T04:26:39;23.15;;;8.77;;
46006;SDS011;31738;50.188;8.524;2023-10-09T04:29:10;19.83;;;8.35;;
46006;SDS011;31738;50.188;8.524;2023-10-09T04:31:45;20.02;;;9.02;;
46006;SDS011;31738;50.188;8.524;2023-10-09T04:34:19;17.80;;;8.25;;
46006;SDS011;31738;50.188;8.524;2023-10-09T04:36:49;16.95;;;8.15;;
46006;SDS011;31738;50.188;8.524;2023-10-09T04:39:16;23.98;;;8.50;;
46006;SDS011;31738;50.188;8.524;2023-10-09T04:41:54;17.95;;;8.57;;
46006;SDS011;31738;50.188;8.524;2023-10-09T04:44:40;18.17;;;8.30;;
46006;SDS011;31738;50.188;8.524;2023-10-09T04:47:25;20.83;;;8.20;;
46006;SDS011;31738;50.188;8.524;2023-10-09T04:50:01;18.33;;;9.00;;
46006;SDS011;31738;50.188;8.524;2023-10-09T04:52:33;20.08;;;8.32;;
46006;SDS011;31738;50.188;8.524;2023-10-09T04:54:59;17.98;;;7.43;;
46006;SDS011;31738;50.188;8.524;2023-10-09T04:57:41;17.45;;;7.57;;
46006;SDS011;31738;50.188;8.524;2023-10-09T05:00:08;19.30;;;8.10;;
46006;SDS011;31738;50.188;8.524;2023-10-09T05:03:01;17.70;;;8.50;;
46006;SDS011;31738;50.188;8.524;2023-10-09T05:05:38;21.45;;;8.40;;
46006;SDS011;31738;50.188;8.524;2023-10-09T05:08:09;22.77;;;8.20;;
46006;SDS011;31738;50.188;8.524;2023-10-09T05:10:53;18.08;;;7.10;;
46006;SDS011;31738;50.188;8.524;2023-10-09T05:16:12;20.88;;;8.10;;
46006;SDS011;31738;50.188;8.524;2023-10-09T05:18:41;18.10;;;7.60;;
46006;SDS011;31738;50.188;8.524;2023-10-09T05:21:13;18.02;;;8.25;;
46006;SDS011;31738;50.188;8.524;2023-10-09T05:23:39;22.02;;;8.88;;
46006;SDS011;31738;50.188;8.524;2023-10-09T05:26:17;17.67;;;8.93;;
46006;SDS011;31738;50.188;8.524;2023-10-09T05:29:02;19.48;;;8.80;;
46006;SDS011;31738;50.188;8.524;2023-10-09T05:31:50;24.63;;;10.80;;
46006;SDS011;31738;50.188;8.524;2023-10-09T05:34:35;23.75;;;9.48;;
46006;SDS011;31738;50.188;8.524;2023-10-09T05:39:58;18.48;;;8.25;;
46006;SDS011;31738;50.188;8.524;2023-10-09T05:45:02;24.75;;;9.77;;
46006;SDS011;31738;50.188;8.524;2023-10-09T05:47:44;20.55;;;8.98;;
46006;SDS011;31738;50.188;8.524;2023-10-09T05:50:21;21.13;;;9.75;;
46006;SDS011;31738;50.188;8.524;2023-10-09T05:52:51;22.80;;;9.65;;
46006;SDS011;31738;50.188;8.524;2023-10-09T05:55:18;19.63;;;9.38;;
46006;SDS011;31738;50.188;8.524;2023-10-09T05:57:44;22.65;;;9.85;;
46006;SDS011;31738;50.188;8.524;2023-10-09T06:00:28;26.40;;;9.95;;
46006;SDS011;31738;50.188;8.524;2023-10-09T06:03:12;26.92;;;10.35;;
46006;SDS011;31738;50.188;8.524;2023-10-09T06:05:44;23.13;;;9.85;;
46006;SDS011;31738;50.188;8.524;2023-10-09T06:10:55;19.77;;;9.55;;
46006;SDS011;31738;50.188;8.524;2023-10-09T06:13:39;26.15;;;10.60;;
46006;SDS011;31738;50.188;8.524;2023-10-09T06:16:12;29.50;;;10.57;;
46006;SDS011;31738;50.188;8.524;2023-10-09T06:18:56;24.30;;;10.23;;
46006;SDS011;31738;50.188;8.524;2023-10-09T06:21:37;30.90;;;10.88;;
46006;SDS011;31738;50.188;8.524;2023-10-09T06:24:32;23.92;;;10.90;;
46006;SDS011;31738;50.188;8.524;2023-10-09T06:27:03;25.55;;;10.02;;
46006;SDS011;31738;50.188;8.524;2023-10-09T06:29:29;27.77;;;11.13;;
46006;SDS011;31738;50.188;8.524;2023-10-09T06:32:05;28.60;;;11.02;;
46006;SDS011;31738;50.188;8.524;2023-10-09T06:34:44;27.67;;;12.07;;
46006;SDS011;31738;50.188;8.524;2023-10-09T06:37:12;30.75;;;10.98;;
46006;SDS011;31738;50.188;8.524;2023-10-09T06:39:51;26.63;;;11.75;;
46006;SDS011;31738;50.188;8.524;2023-10-09T06:42:24;31.13;;;11.63;;
46006;SDS011;31738;50.188;8.524;2023-10-09T06:45:10;32.10;;;12.13;;
46006;SDS011;31738;50.188;8.524;2023-10-09T06:47:39;32.60;;;12.98;;
46006;SDS011;31738;50.188;8.524;2023-10-09T06:50:09;39.08;;;12.70;;
46006;SDS011;31738;50.188;8.524;2023-10-09T06:52:46;29.10;;;11.95;;
46006;SDS011;31738;50.188;8.524;2023-10-09T06:55:43;28.77;;;11.50;;
46006;SDS011;31738;50.188;8.524;2023-10-09T06:58:26;26.35;;;12.27;;
46006;SDS011;31738;50.188;8.524;2023-10-09T07:00:53;26.55;;;12.40;;
46006;SDS011;31738;50.188;8.524;2023-10-09T07:06:17;26.65;;;12.52;;
46006;SDS011;31738;50.188;8.524;2023-10-09T07:08:56;28.75;;;13.07;;
46006;SDS011;31738;50.188;8.524;2023-10-09T07:11:31;27.00;;;12.50;;
46006;SDS011;31738;50.188;8.524;2023-10-09T07:14:18;25.88;;;12.52;;
46006;SDS011;31738;50.188;8.524;2023-10-09T07:19:41;24.92;;;11.80;;
46006;SDS011;31738;50.188;8.524;2023-10-09T07:22:08;24.98;;;11.98;;
46006;SDS011;31738;50.188;8.524;2023-10-09T07:24:49;20.77;;;11.02;;
46006;SDS011;31738;50.188;8.524;2023-10-09T07:30:07;26.63;;;11.95;;
46006;SDS011;31738;50.188;8.524;2023-10-09T07:35:42;24.67;;;11.65;;
46006;SDS011;31738;50.188;8.524;2023-10-09T07:40:39;24.55;;;11.55;;
46006;SDS011;31738;50.188;8.524;2023-10-09T07:43:40;26.50;;;12.18;;
46006;SDS011;31738;50.188;8.524;2023-10-09T07:46:09;27.83;;;12.20;;
46006;SDS011;31738;50.188;8.524;2023-10-09T07:48:55;26.65;;;12.35;;
46006;SDS011;31738;50.188;8.524;2023-10-09T07:51:22;26.85;;;12.13;;
46006;SDS011;31738;50.188;8.524;2023-10-09T07:53:54;27.98;;;12.18;;
46006;SDS011;31738;50.188;8.524;2023-10-09T07:56:23;26.17;;;12.10;;
46006;SDS011;31738;50.188;8.524;2023-10-09T07:58:49;28.13;;;12.73;;
46006;SDS011;31738;50.188;8.524;2023-10-09T08:01:15;25.02;;;12.80;;
46006;SDS011;31738;50.188;8.524;2023-10-09T08:03:44;25.65;;;12.48;;
46006;SDS011;31738;50.188;8.524;2023-10-09T08:06:12;30.15;;;13.82;;
46006;SDS011;31738;50.188;8.524;2023-10-09T08:08:56;32.03;;;14.83;;
46006;SDS011;31738;50.188;8.524;2023-10-09T08:11:30;31.42;;;14.43;;
46006;SDS011;31738;50.188;8.524;2023-10-09T08:14:08;29.05;;;13.52;;
46006;SDS011;31738;50.188;8.524;2023-10-09T08:16:52;25.42;;;12.82;;
46006;SDS011;31738;50.188;8.524;2023-10-09T08:19:46;28.85;;;13.10;;
46006;SDS011;31738;50.188;8.524;2023-10-09T08:24:48;31.33;;;13.02;;
46006;SDS011;31738;50.188;8.524;2023-10-09T08:30:04;24.85;;;11.57;;
46006;SDS011;31738;50.188;8.524;2023-10-09T08:32:47;22.73;;;11.32;;
46006;SDS011;31738;50.188;8.524;2023-10-09T08:35:34;20.63;;;11.45;;
46006;SDS011;31738;50.188;8.524;2023-10-09T08:38:20;24.73;;;10.45;;
46006;SDS011;31738;50.188;8.524;2023-10-09T08:40:49;25.35;;;10.43;;
46006;SDS011;31738;50.188;8.524;2023-10-09T08:43:19;24.98;;;10.63;;
46006;SDS011;31738;50.188;8.524;2023-10-09T08:45:46;26.88;;;11.18;;
46006;SDS011;31738;50.188;8.524;2023-10-09T08:48:13;22.08;;;10.43;;
46006;SDS011;31738;50.188;8.524;2023-10-09T08:50:43;27.25;;;10.45;;
46006;SDS011;31738;50.188;8.524;2023-10-09T08:53:10;25.40;;;10.65;;
46006;SDS011;31738;50.188;8.524;2023-10-09T08:55:37;26.73;;;11.73;;
46006;SDS011;31738;50.188;8.524;2023-10-09T08:58:06;21.98;;;11.45;;
46006;SDS011;31738;50.188;8.524;2023-10-09T09:00:41;23.92;;;11.70;;
46006;SDS011;31738;50.188;8.524;2023-10-09T09:03:11;30.50;;;11.43;;
46006;SDS011;31738;50.188;8.524;2023-10-09T09:05:41;26.30;;;11.85;;
46006;SDS011;31738;50.188;8.524;2023-10-09T09:08:19;24.85;;;11.18;;
46006;SDS011;31738;50.188;8.524;2023-10-09T09:10:50;22.55;;;10.95;;
46006;SDS011;31738;50.188;8.524;2023-10-09T09:13:24;22.40;;;11.45;;
46006;SDS011;31738;50.188;8.524;2023-10-09T09:15:50;22.85;;;11.13;;
46006;SDS011;31738;50.188;8.524;2023-10-09T09:18:18;22.52;;;11.30;;
46006;SDS011;31738;50.188;8.524;2023-10-09T09:20:44;25.85;;;10.88;;
46006;SDS011;31738;50.188;8.524;2023-10-09T09:23:12;23.58;;;11.02;;
46006;SDS011;31738;50.188;8.524;2023-10-09T09:25:47;25.90;;;10.60;;
46006;SDS011;31738;50.188;8.524;2023-10-09T09:28:15;22.42;;;10.52;;
46006;SDS011;31738;50.188;8.524;2023-10-09T09:30:47;22.63;;;9.27;;
46006;SDS011;31738;50.188;8.524;2023-10-09T09:33:19;19.90;;;8.95;;
46006;SDS011;31738;50.188;8.524;2023-10-09T09:35:55;28.33;;;10.25;;
46006;SDS011;31738;50.188;8.524;2023-10-09T09:38:22;21.55;;;9.20;;
46006;SDS011;31738;50.188;8.524;2023-10-09T09:40:51;23.27;;;10.02;;
46006;SDS011;31738;50.188;8.524;2023-10-09T09:43:19;22.48;;;9.88;;
46006;SDS011;31738;50.188;8.524;2023-10-09T09:45:50;18.55;;;9.80;;
46006;SDS011;31738;50.188;8.524;2023-10-09T09:48:18;19.83;;;9.18;;
46006;SDS011;31738;50.188;8.524;2023-10-09T09:50:44;19.50;;;9.27;;
46006;SDS011;31738;50.188;8.524;2023-10-09T09:53:11;20.92;;;9.57;;
46006;SDS011;31738;50.188;8.524;2023-10-09T09:55:49;18.67;;;8.82;;
46006;SDS011;31738;50.188;8.524;2023-10-09T09:58:25;19.63;;;8.75;;
46006;SDS011;31738;50.188;8.524;2023-10-09T10:01:09;23.92;;;9.38;;
46006;SDS011;31738;50.188;8.524;2023-10-09T10:04:11;21.90;;;9.57;;
46006;SDS011;31738;50.188;8.524;2023-10-09T10:12:10;15.40;;;8.50;;
46006;SDS011;31738;50.188;8.524;2023-10-09T10:17:24;25.52;;;9.80;;
46006;SDS011;31738;50.188;8.524;2023-10-09T10:20:08;15.90;;;9.15;;
46006;SDS011;31738;50.188;8.524;2023-10-09T10:22:39;18.30;;;8.55;;
46006;SDS011;31738;50.188;8.524;2023-10-09T10:28:16;23.13;;;8.85;;
46006;SDS011;31738;50.188;8.524;2023-10-09T10:30:56;18.48;;;8.73;;
46006;SDS011;31738;50.188;8.524;2023-10-09T10:33:25;18.95;;;8.27;;
46006;SDS011;31738;50.188;8.524;2023-10-09T10:35:52;18.95;;;8.30;;
46006;SDS011;31738;50.188;8.524;2023-10-09T10:38:33;16.13;;;8.30;;
46006;SDS011;31738;50.188;8.524;2023-10-09T10:41:08;23.10;;;8.32;;
46006;SDS011;31738;50.188;8.524;2023-10-09T10:46:18;20.10;;;7.82;;
46006;SDS011;31738;50.188;8.524;2023-10-09T10:49:06;20.00;;;8.48;;
46006;SDS011;31738;50.188;8.524;2023-10-09T10:51:37;16.85;;;7.97;;
46006;SDS011;31738;50.188;8.524;2023-10-09T10:54:04;17.63;;;8.13;;
46006;SDS011;31738;50.188;8.524;2023-10-09T10:56:49;18.38;;;8.43;;
46006;SDS011;31738;50.188;8.524;2023-10-09T10:59:15;19.65;;;7.38;;
46006;SDS011;31738;50.188;8.524;2023-10-09T11:01:51;16.38;;;7.78;;
46006;SDS011;31738;50.188;8.524;2023-10-09T11:04:27;16.73;;;8.32;;
46006;SDS011;31738;50.188;8.524;2023-10-09T11:07:00;16.40;;;7.85;;
46006;SDS011;31738;50.188;8.524;2023-10-09T11:09:50;16.83;;;7.65;;
46006;SDS011;31738;50.188;8.524;2023-10-09T11:12:43;17.55;;;7.40;;
46006;SDS011;31738;50.188;8.524;2023-10-09T11:15:13;16.33;;;6.97;;
46006;SDS011;31738;50.188;8.524;2023-10-09T11:18:01;16.70;;;7.20;;
46006;SDS011;31738;50.188;8.524;2023-10-09T11:20:34;17.45;;;7.47;;
46006;SDS011;31738;50.188;8.524;2023-10-09T11:23:01;17.25;;;7.22;;
46006;SDS011;31738;50.188;8.524;2023-10-09T11:28:03;15.20;;;6.22;;
46006;SDS011;31738;50.188;8.524;2023-10-09T11:30:41;19.88;;;7.60;;
46006;SDS011;31738;50.188;8.524;2023-10-09T11:33:11;14.88;;;6.57;;
46006;SDS011;31738;50.188;8.524;2023-10-09T11:35:40;13.30;;;6.28;;
46006;SDS011;31738;50.188;8.524;2023-10-09T11:38:08;14.32;;;6.28;;
46006;SDS011;31738;50.188;8.524;2023-10-09T11:40:46;16.25;;;5.32;;
46006;SDS011;31738;50.188;8.524;2023-10-09T11:43:17;12.07;;;4.97;;
46006;SDS011;31738;50.188;8.524;2023-10-09T11:45:51;13.93;;;4.65;;
46006;SDS011;31738;50.188;8.524;2023-10-09T11:48:20;10.50;;;4.35;;
46006;SDS011;31738;50.188;8.524;2023-10-09T11:50:56;13.27;;;4.35;;
46006;SDS011;31738;50.188;8.524;2023-10-09T11:53:41;10.25;;;3.92;;
46006;SDS011;31738;50.188;8.524;2023-10-09T11:56:08;8.13;;;4.07;;
46006;SDS011;31738;50.188;8.524;2023-10-09T11:58:39;11.15;;;4.18;;
46006;SDS011;31738;50.188;8.524;2023-10-09T12:01:12;7.97;;;3.92;;
46006;SDS011;31738;50.188;8.524;2023-10-09T12:03:50;11.55;;;4.13;;
46006;SDS011;31738;50.188;8.524;2023-10-09T12:06:16;14.27;;;3.67;;
46006;SDS011;31738;50.188;8.524;2023-10-09T12:08:45;10.65;;;3.47;;
46006;SDS011;31738;50.188;8.524;2023-10-09T12:11:14;7.97;;;3.63;;
46006;SDS011;31738;50.188;8.524;2023-10-09T12:13:50;9.75;;;3.80;;
46006;SDS011;31738;50.188;8.524;2023-10-09T12:16:21;10.88;;;4.38;;
46006;SDS011;31738;50.188;8.524;2023-10-09T12:18:53;11.98;;;4.03;;
46006;SDS011;31738;50.188;8.524;2023-10-09T12:21:20;10.75;;;4.13;;
46006;SDS011;31738;50.188;8.524;2023-10-09T12:23:45;13.02;;;4.13;;
46006;SDS011;31738;50.188;8.524;2023-10-09T12:26:12;10.90;;;4.35;;
46006;SDS011;31738;50.188;8.524;2023-10-09T12:28:42;8.40;;;3.88;;
46006;SDS011;31738;50.188;8.524;2023-10-09T12:31:14;10.60;;;3.78;;
46006;SDS011;31738;50.188;8.524;2023-10-09T12:33:40;8.10;;;4.25;;
46006;SDS011;31738;50.188;8.524;2023-10-09T12:36:07;9.85;;;3.67;;
46006;SDS011;31738;50.188;8.524;2023-10-09T12:38:45;10.93;;;3.92;;
46006;SDS011;31738;50.188;8.524;2023-10-09T12:41:15;12.88;;;4.13;;
46006;SDS011;31738;50.188;8.524;2023-10-09T12:43:53;12.65;;;4.40;;
46006;SDS011;31738;50.188;8.524;2023-10-09T12:46:19;9.27;;;4.10;;
46006;SDS011;31738;50.188;8.524;2023-10-09T12:48:57;9.50;;;4.10;;
46006;SDS011;31738;50.188;8.524;2023-10-09T12:51:22;10.27;;;3.53;;
46006;SDS011;31738;50.188;8.524;2023-10-09T12:53:54;8.43;;;3.90;;
46006;SDS011;31738;50.188;8.524;2023-10-09T12:56:23;8.70;;;3.63;;
46006;SDS011;31738;50.188;8.524;2023-10-09T12:59:01;9.70;;;3.85;;
46006;SDS011;31738;50.188;8.524;2023-10-09T13:01:27;8.63;;;3.80;;
46006;SDS011;31738;50.188;8.524;2023-10-09T13:04:00;9.95;;;4.13;;
46006;SDS011;31738;50.188;8.524;2023-10-09T13:06:26;7.82;;;3.60;;
46006;SDS011;31738;50.188;8.524;2023-10-09T13:08:52;8.32;;;3.63;;
46006;SDS011;31738;50.188;8.524;2023-10-09T13:11:19;10.82;;;3.85;;
46006;SDS011;31738;50.188;8.524;2023-10-09T13:13:46;6.97;;;3.50;;
46006;SDS011;31738;50.188;8.524;2023-10-09T13:16:13;9.07;;;3.90;;
46006;SDS011;31738;50.188;8.524;2023-10-09T13:18:48;8.75;;;3.90;;
46006;SDS011;31738;50.188;8.524;2023-10-09T13:21:18;6.65;;;3.38;;
46006;SDS011;31738;50.188;8.524;2023-10-09T13:23:48;7.85;;;3.55;;
46006;SDS011;31738;50.188;8.524;2023-10-09T13:26:20;9.55;;;3.88;;
46006;SDS011;31738;50.188;8.524;2023-10-09T13:28:53;11.70;;;3.80;;
46006;SDS011;31738;50.188;8.524;2023-10-09T13:31:20;8.95;;;4.15;;
46006;SDS011;31738;50.188;8.524;2023-10-09T13:33:47;9.05;;;3.88;;
46006;SDS011;31738;50.188;8.524;2023-10-09T13:36:13;11.80;;;3.40;;
46006;SDS011;31738;50.188;8.524;2023-10-09T13:38:47;11.88;;;3.80;;
46006;SDS011;31738;50.188;8.524;2023-10-09T13:41:13;8.80;;;3.92;;
46006;SDS011;31738;50.188;8.524;2023-10-09T13:43:43;7.00;;;3.38;;
46006;SDS011;31738;50.188;8.524;2023-10-09T13:46:12;9.18;;;3.63;;
46006;SDS011;31738;50.188;8.524;2023-10-09T13:48:41;7.70;;;3.25;;
46006;SDS011;31738;50.188;8.524;2023-10-09T13:51:12;8.77;;;4.03;;
46006;SDS011;31738;50.188;8.524;2023-10-09T13:53:44;6.78;;;2.97;;
46006;SDS011;31738;50.188;8.524;2023-10-09T13:56:14;9.57;;;3.45;;
46006;SDS011;31738;50.188;8.524;2023-10-09T13:58:50;7.10;;;3.20;;
46006;SDS011;31738;50.188;8.524;2023-10-09T14:01:20;8.70;;;3.30;;
46006;SDS011;31738;50.188;8.524;2023-10-09T14:04:01;8.15;;;3.72;;
46006;SDS011;31738;50.188;8.524;2023-10-09T14:06:27;8.93;;;3.88;;
46006;SDS011;31738;50.188;8.524;2023-10-09T14:08:56;6.00;;;3.25;;
46006;SDS011;31738;50.188;8.524;2023-10-09T14:11:23;11.95;;;3.45;;
46006;SDS011;31738;50.188;8.524;2023-10-09T14:13:50;7.72;;;3.22;;
46006;SDS011;31738;50.188;8.524;2023-10-09T14:16:16;6.63;;;3.05;;
46006;SDS011;31738;50.188;8.524;2023-10-09T14:18:50;7.05;;;3.45;;
46006;SDS011;31738;50.188;8.524;2023-10-09T14:21:21;7.68;;;3.65;;
46006;SDS011;31738;50.188;8.524;2023-10-09T14:23:47;9.50;;;3.60;;
46006;SDS011;31738;50.188;8.524;2023-10-09T14:26:13;12.02;;;3.83;;
46006;SDS011;31738;50.188;8.524;2023-10-09T14:28:39;7.97;;;2.65;;
46006;SDS011;31738;50.188;8.524;2023-10-09T14:31:05;7.80;;;3.58;;
46006;SDS011;31738;50.188;8.524;2023-10-09T14:33:36;10.85;;;3.58;;
46006;SDS011;31738;50.188;8.524;2023-10-09T14:36:02;10.07;;;3.65;;
46006;SDS011;31738;50.188;8.524;2023-10-09T14:38:27;7.53;;;3.25;;
46006;SDS011;31738;50.188;8.524;2023-10-09T14:40:57;7.28;;;3.30;;
46006;SDS011;31738;50.188;8.524;2023-10-09T14:43:25;9.43;;;3.72;;
46006;SDS011;31738;50.188;8.524;2023-10-09T14:45:58;8.23;;;3.75;;
46006;SDS011;31738;50.188;8.524;2023-10-09T14:48:23;7.90;;;3.72;;
46006;SDS011;31738;50.188;8.524;2023-10-09T14:50:53;9.23;;;4.22;;
46006;SDS011;31738;50.188;8.524;2023-10-09T14:53:20;8.10;;;3.92;;
46006;SDS011;31738;50.188;8.524;2023-10-09T14:55:46;8.35;;;3.70;;
46006;SDS011;31738;50.188;8.524;2023-10-09T14:58:13;10.02;;;3.88;;
46006;SDS011;31738;50.188;8.524;2023-10-09T15:00:40;9.60;;;3.90;;
46006;SDS011;31738;50.188;8.524;2023-10-09T15:03:12;9.95;;;4.22;;
46006;SDS011;31738;50.188;8.524;2023-10-09T15:05:43;10.30;;;4.20;;
46006;SDS011;31738;50.188;8.524;2023-10-09T15:08:08;7.88;;;4.07;;
46006;SDS011;31738;50.188;8.524;2023-10-09T15:10:44;8.25;;;3.60;;
46006;SDS011;31738;50.188;8.524;2023-10-09T15:13:10;11.25;;;4.05;;
46006;SDS011;31738;50.188;8.524;2023-10-09T15:15:41;10.30;;;4.30;;
46006;SDS011;31738;50.188;8.524;2023-10-09T15:18:07;8.98;;;4.32;;
46006;SDS011;31738;50.188;8.524;2023-10-09T15:20:34;9.50;;;4.13;;
46006;SDS011;31738;50.188;8.524;2023-10-09T15:23:00;7.95;;;3.80;;
46006;SDS011;31738;50.188;8.524;2023-10-09T15:25:26;7.05;;;3.40;;
46006;SDS011;31738;50.188;8.524;2023-10-09T15:27:52;9.95;;;4.10;;
46006;SDS011;31738;50.188;8.524;2023-10-09T15:30:17;7.97;;;4.00;;
46006;SDS011;31738;50.188;8.524;2023-10-09T15:32:43;9.65;;;3.85;;
46006;SDS011;31738;50.188;8.524;2023-10-09T15:35:09;9.23;;;4.30;;
46006;SDS011;31738;50.188;8.524;2023-10-09T15:37:38;11.48;;;4.35;;
46006;SDS011;31738;50.188;8.524;2023-10-09T15:40:06;11.65;;;3.80;;
46006;SDS011;31738;50.188;8.524;2023-10-09T15:42:33;8.23;;;3.78;;
46006;SDS011;31738;50.188;8.524;2023-10-09T15:44:58;10.77;;;4.35;;
46006;SDS011;31738;50.188;8.524;2023-10-09T15:47:25;9.93;;;4.35;;
46006;SDS011;31738;50.188;8.524;2023-10-09T15:49:51;7.55;;;3.75;;
46006;SDS011;31738;50.188;8.524;2023-10-09T15:52:19;10.43;;;4.18;;
46006;SDS011;31738;50.188;8.524;2023-10-09T15:54:45;7.85;;;3.90;;
46006;SDS011;31738;50.188;8.524;2023-10-09T15:57:13;9.20;;;4.32;;
46006;SDS011;31738;50.188;8.524;2023-10-09T15:59:38;11.65;;;4.70;;